Time;durP1;ratioP1;P1;durP2;ratioP2;P2;SDS_P1;SDS_P2;PMS_P1;PMS_P2;Temp;Humidity;BMP_temperature;BMP_pressure;BME280_temperature;BME280_humidity;BME280_pressure;Samples;Min_cycle;Max_cycle;Signal;HPM_P1;HPM_P2
2022/10/12 00:01:18;;;;;;;7.83;3.20;;;;;;;;;;5115883;27;20835;-71
2022/10/12 00:03:45;;;;;;;13.70;4.20;;;;;;;;;;5128245;27;20886;-71
2022/10/12 00:06:14;;;;;;;12.37;4.60;;;;;;;;;;5120222;27;20450;-71
2022/10/12 00:08:41;;;;;;;8.03;3.37;;;;;;;;;;5116994;27;20823;-71
2022/10/12 00:11:11;;;;;;;17.20;4.27;;;;;;;;;;5115959;27;20431;-70
2022/10/12 00:13:38;;;;;;;7.50;2.90;;;;;;;;;;5120625;27;20797;-71
2022/10/12 00:16:05;;;;;;;12.43;3.70;;;;;;;;;;5136598;27;20446;-70
2022/10/12 00:18:32;;;;;;;8.87;3.83;;;;;;;;;;5131357;27;20463;-70
2022/10/12 00:21:04;;;;;;;12.13;3.63;;;;;;;;;;5117793;27;20450;-71
2022/10/12 00:23:31;;;;;;;9.07;2.93;;;;;;;;;;5129460;27;20458;-71
2022/10/12 00:26:01;;;;;;;12.47;3.17;;;;;;;;;;5117487;27;20449;-71
2022/10/12 00:28:29;;;;;;;6.40;3.73;;;;;;;;;;5115874;27;20461;-71
2022/10/12 00:30:56;;;;;;;10.57;3.17;;;;;;;;;;5119687;27;20542;-70
2022/10/12 00:33:23;;;;;;;11.43;3.37;;;;;;;;;;5125707;27;20492;-71
2022/10/12 00:35:51;;;;;;;9.50;3.50;;;;;;;;;;5119778;27;20442;-71
2022/10/12 00:38:21;;;;;;;7.93;3.07;;;;;;;;;;5116605;27;20464;-71
2022/10/12 00:40:48;;;;;;;12.40;3.50;;;;;;;;;;5120465;27;20481;-71
2022/10/12 00:43:28;;;;;;;8.93;3.60;;;;;;;;;;5119523;27;20900;-71
2022/10/12 00:45:59;;;;;;;9.00;2.83;;;;;;;;;;5124423;27;20453;-69
2022/10/12 00:48:26;;;;;;;16.00;3.90;;;;;;;;;;5130888;27;20450;-70
2022/10/12 00:50:53;;;;;;;10.60;3.20;;;;;;;;;;5128057;27;20810;-71
2022/10/12 00:53:23;;;;;;;7.30;3.00;;;;;;;;;;5140305;27;20482;-70
2022/10/12 00:55:52;;;;;;;10.40;3.20;;;;;;;;;;5122126;27;20523;-69
2022/10/12 00:58:19;;;;;;;9.97;3.20;;;;;;;;;;5118633;27;20754;-70
2022/10/12 01:00:46;;;;;;;9.33;3.63;;;;;;;;;;5122288;27;20515;-71
2022/10/12 01:03:15;;;;;;;11.07;4.63;;;;;;;;;;5137006;27;20455;-71
2022/10/12 01:05:45;;;;;;;11.07;3.50;;;;;;;;;;5119481;27;20446;-71
2022/10/12 01:08:12;;;;;;;7.50;2.57;;;;;;;;;;5121112;27;20457;-71
2022/10/12 01:10:39;;;;;;;6.87;2.70;;;;;;;;;;5136874;27;20478;-71
2022/10/12 01:13:07;;;;;;;10.70;3.90;;;;;;;;;;5121890;27;20483;-71
2022/10/12 01:15:35;;;;;;;6.97;2.70;;;;;;;;;;5126064;27;20440;-71
2022/10/12 01:18:06;;;;;;;8.57;3.07;;;;;;;;;;5118459;27;20527;-70
2022/10/12 01:20:44;;;;;;;10.00;3.17;;;;;;;;;;5118254;27;20455;-70
2022/10/12 01:23:20;;;;;;;8.30;2.83;;;;;;;;;;5125567;27;20480;-71
2022/10/12 01:25:56;;;;;;;9.50;3.10;;;;;;;;;;5138215;27;20481;-71
2022/10/12 01:28:30;;;;;;;8.00;2.80;;;;;;;;;;5125476;27;20479;-72
2022/10/12 01:31:00;;;;;;;7.30;2.43;;;;;;;;;;5138766;27;20461;-70
2022/10/12 01:33:31;;;;;;;5.57;2.53;;;;;;;;;;5119719;27;20503;-70
2022/10/12 01:36:00;;;;;;;8.20;2.67;;;;;;;;;;5118770;27;20474;-70
2022/10/12 01:38:42;;;;;;;7.97;2.00;;;;;;;;;;5118030;27;20451;-70
2022/10/12 01:41:13;;;;;;;12.07;2.57;;;;;;;;;;5101785;27;20565;-70
2022/10/12 01:43:41;;;;;;;11.13;2.87;;;;;;;;;;5129519;27;20454;-70
2022/10/12 01:46:23;;;;;;;5.67;2.17;;;;;;;;;;5136625;27;20457;-70
2022/10/12 01:48:52;;;;;;;9.63;2.90;;;;;;;;;;5123757;27;20459;-70
2022/10/12 01:51:30;;;;;;;5.43;2.00;;;;;;;;;;5119198;27;20521;-71
2022/10/12 01:54:03;;;;;;;7.50;2.47;;;;;;;;;;5122917;27;20860;-70
2022/10/12 01:56:32;;;;;;;6.40;2.33;;;;;;;;;;5125285;27;20911;-70
2022/10/12 01:59:03;;;;;;;13.77;3.10;;;;;;;;;;5117650;27;20443;-70
2022/10/12 02:01:33;;;;;;;10.53;2.63;;;;;;;;;;5118027;27;20450;-70
2022/10/12 02:04:04;;;;;;;8.17;3.40;;;;;;;;;;5126992;27;20480;-70
2022/10/12 02:06:33;;;;;;;8.93;2.30;;;;;;;;;;5138162;27;20726;-70
2022/10/12 02:09:02;;;;;;;11.90;2.77;;;;;;;;;;5121664;27;20738;-70
2022/10/12 02:11:29;;;;;;;11.80;2.93;;;;;;;;;;5120768;27;20727;-71
2022/10/12 02:13:58;;;;;;;5.70;2.63;;;;;;;;;;5127850;27;20935;-71
2022/10/12 02:16:28;;;;;;;18.03;2.97;;;;;;;;;;5137606;27;20508;-70
2022/10/12 02:18:56;;;;;;;17.37;2.60;;;;;;;;;;5137811;27;20457;-70
2022/10/12 02:21:25;;;;;;;9.20;2.57;;;;;;;;;;5134860;27;20491;-71
2022/10/12 02:23:53;;;;;;;8.53;2.73;;;;;;;;;;5117264;27;20490;-70
2022/10/12 02:26:21;;;;;;;8.30;2.80;;;;;;;;;;5118899;27;20541;-70
2022/10/12 02:28:51;;;;;;;6.80;3.20;;;;;;;;;;5133081;27;20466;-71
2022/10/12 02:31:22;;;;;;;7.33;2.10;;;;;;;;;;5118632;27;20453;-71
2022/10/12 02:33:51;;;;;;;5.10;2.27;;;;;;;;;;5117795;27;20551;-71
2022/10/12 02:36:23;;;;;;;11.87;3.50;;;;;;;;;;5117041;27;20439;-70
2022/10/12 02:38:53;;;;;;;5.93;2.10;;;;;;;;;;5134389;27;20858;-70
2022/10/12 02:41:25;;;;;;;6.17;2.07;;;;;;;;;;5135785;27;20522;-70
2022/10/12 02:43:54;;;;;;;13.57;2.87;;;;;;;;;;5128345;27;20862;-70
2022/10/12 02:46:23;;;;;;;8.27;2.60;;;;;;;;;;5137530;27;20458;-71
2022/10/12 02:48:55;;;;;;;7.87;2.67;;;;;;;;;;5119482;27;20447;-71
2022/10/12 02:51:23;;;;;;;5.67;2.10;;;;;;;;;;5121086;27;20449;-70
2022/10/12 02:53:50;;;;;;;4.17;1.80;;;;;;;;;;5135049;27;20799;-71
2022/10/12 02:56:18;;;;;;;6.03;1.93;;;;;;;;;;5120025;27;20498;-70
2022/10/12 02:58:46;;;;;;;9.03;2.47;;;;;;;;;;5125555;27;20457;-71
2022/10/12 03:01:13;;;;;;;4.97;2.40;;;;;;;;;;5121932;27;20449;-70
2022/10/12 03:03:43;;;;;;;8.50;2.73;;;;;;;;;;5126260;27;20464;-71
2022/10/12 03:06:10;;;;;;;9.03;2.73;;;;;;;;;;5137033;27;20461;-70
2022/10/12 03:08:46;;;;;;;7.73;2.07;;;;;;;;;;5135976;27;20869;-70
2022/10/12 03:11:13;;;;;;;6.50;2.40;;;;;;;;;;5117396;27;20462;-70
2022/10/12 03:13:41;;;;;;;9.73;2.20;;;;;;;;;;5133569;27;20482;-70
2022/10/12 03:16:09;;;;;;;11.43;3.13;;;;;;;;;;5131496;27;20816;-70
2022/10/12 03:18:38;;;;;;;9.90;2.37;;;;;;;;;;5116012;27;20463;-70
2022/10/12 03:21:06;;;;;;;5.87;1.97;;;;;;;;;;5115717;27;20733;-70
2022/10/12 03:23:36;;;;;;;8.77;2.40;;;;;;;;;;5117168;27;20561;-71
2022/10/12 03:26:04;;;;;;;12.90;2.40;;;;;;;;;;5116467;27;20454;-70
2022/10/12 03:28:31;;;;;;;7.10;2.50;;;;;;;;;;5117369;27;20454;-70
2022/10/12 03:30:59;;;;;;;5.40;2.97;;;;;;;;;;5116673;27;20447;-70
2022/10/12 03:33:28;;;;;;;12.33;1.90;;;;;;;;;;5116385;27;20602;-70
2022/10/12 03:35:55;;;;;;;7.73;2.20;;;;;;;;;;5115901;27;20446;-70
2022/10/12 03:38:28;;;;;;;9.97;2.30;;;;;;;;;;5116636;27;20824;-70
2022/10/12 03:40:56;;;;;;;11.80;3.00;;;;;;;;;;5116104;27;20769;-70
2022/10/12 03:43:23;;;;;;;8.90;2.30;;;;;;;;;;5116716;27;20504;-70
2022/10/12 03:45:51;;;;;;;6.67;2.20;;;;;;;;;;5115984;27;20454;-70
2022/10/12 03:48:19;;;;;;;10.60;2.10;;;;;;;;;;5115546;27;20797;-70
2022/10/12 03:50:48;;;;;;;3.97;2.50;;;;;;;;;;5114580;27;20863;-70
2022/10/12 03:53:16;;;;;;;7.70;1.87;;;;;;;;;;5134382;27;20503;-70
2022/10/12 03:55:42;;;;;;;6.43;1.80;;;;;;;;;;5116715;27;20461;-70
2022/10/12 03:58:09;;;;;;;10.00;2.80;;;;;;;;;;5115644;27;20507;-70
2022/10/12 04:00:36;;;;;;;5.77;1.97;;;;;;;;;;5115676;27;20701;-70
2022/10/12 04:03:03;;;;;;;8.57;2.80;;;;;;;;;;5115992;27;20462;-70
2022/10/12 04:05:32;;;;;;;8.80;2.43;;;;;;;;;;5115642;27;20473;-70
2022/10/12 04:07:59;;;;;;;7.60;2.60;;;;;;;;;;5114829;27;20503;-70
2022/10/12 04:10:26;;;;;;;6.67;1.93;;;;;;;;;;5114600;27;20519;-70
2022/10/12 04:12:53;;;;;;;6.70;2.20;;;;;;;;;;5114941;27;20524;-70
2022/10/12 04:15:20;;;;;;;8.80;2.00;;;;;;;;;;5132454;27;20539;-70
2022/10/12 04:17:46;;;;;;;11.43;2.57;;;;;;;;;;5135881;27;20452;-70
2022/10/12 04:20:13;;;;;;;5.80;3.43;;;;;;;;;;5139437;27;20439;-70
2022/10/12 04:22:41;;;;;;;15.57;2.97;;;;;;;;;;5139836;27;20460;-70
2022/10/12 04:25:08;;;;;;;6.10;2.53;;;;;;;;;;5139726;27;20454;-70
2022/10/12 04:27:35;;;;;;;13.47;2.30;;;;;;;;;;5139577;27;20434;-70
2022/10/12 04:30:02;;;;;;;12.70;2.67;;;;;;;;;;5125181;27;20882;-70
2022/10/12 04:32:30;;;;;;;5.90;2.10;;;;;;;;;;5128687;27;20478;-70
2022/10/12 04:34:57;;;;;;;7.90;2.00;;;;;;;;;;5119705;27;20454;-70
2022/10/12 04:37:26;;;;;;;7.43;2.30;;;;;;;;;;5119363;27;20453;-70
2022/10/12 04:39:54;;;;;;;14.80;3.43;;;;;;;;;;5117870;27;20465;-70
2022/10/12 04:42:21;;;;;;;7.63;2.07;;;;;;;;;;5119577;27;20541;-69
2022/10/12 04:44:48;;;;;;;9.00;2.60;;;;;;;;;;5119200;27;20732;-69
2022/10/12 04:47:14;;;;;;;5.33;1.90;;;;;;;;;;5137714;27;20749;-70
2022/10/12 04:49:41;;;;;;;12.33;2.27;;;;;;;;;;5137789;27;20450;-69
2022/10/12 04:52:08;;;;;;;6.03;2.67;;;;;;;;;;5124276;27;20478;-69
2022/10/12 04:54:38;;;;;;;13.40;2.80;;;;;;;;;;5138168;27;20913;-69
2022/10/12 04:57:10;;;;;;;10.37;2.40;;;;;;;;;;5127073;27;20616;-70
2022/10/12 04:59:37;;;;;;;11.90;2.70;;;;;;;;;;5117583;27;20464;-69
2022/10/12 05:02:08;;;;;;;10.53;2.70;;;;;;;;;;5122653;27;20540;-70
2022/10/12 05:04:35;;;;;;;9.37;3.27;;;;;;;;;;5138062;27;20530;-70
2022/10/12 05:07:02;;;;;;;4.00;1.80;;;;;;;;;;5133579;27;21120;-70
2022/10/12 05:09:32;;;;;;;11.63;3.00;;;;;;;;;;5119378;27;20459;-71
2022/10/12 05:11:59;;;;;;;11.47;3.10;;;;;;;;;;5116085;27;20496;-71
2022/10/12 05:14:27;;;;;;;6.73;2.30;;;;;;;;;;5114736;27;20455;-70
2022/10/12 05:16:54;;;;;;;9.83;3.10;;;;;;;;;;5115710;27;20462;-71
2022/10/12 05:19:21;;;;;;;7.40;2.83;;;;;;;;;;5112591;27;20538;-70
2022/10/12 05:21:59;;;;;;;5.77;2.23;;;;;;;;;;5114032;27;20507;-70
2022/10/12 05:24:27;;;;;;;4.93;2.53;;;;;;;;;;5113030;27;20919;-70
2022/10/12 05:26:55;;;;;;;7.93;3.23;;;;;;;;;;5116068;27;20443;-70
2022/10/12 05:29:22;;;;;;;4.10;1.80;;;;;;;;;;5115868;27;21037;-70
2022/10/12 05:31:49;;;;;;;9.03;2.77;;;;;;;;;;5115161;27;20442;-70
2022/10/12 05:34:16;;;;;;;6.70;2.90;;;;;;;;;;5113599;27;20462;-70
2022/10/12 05:36:47;;;;;;;7.53;3.03;;;;;;;;;;5113726;27;20594;-70
2022/10/12 05:39:14;;;;;;;8.43;2.80;;;;;;;;;;5112638;27;20473;-70
2022/10/12 05:41:41;;;;;;;14.50;2.87;;;;;;;;;;5111733;27;20449;-72
2022/10/12 05:44:11;;;;;;;11.63;3.30;;;;;;;;;;5111535;27;20451;-73
2022/10/12 05:46:40;;;;;;;11.53;3.27;;;;;;;;;;5114894;27;20443;-72
2022/10/12 05:49:08;;;;;;;13.57;3.50;;;;;;;;;;5115627;27;20479;-75
2022/10/12 05:51:37;;;;;;;9.07;2.20;;;;;;;;;;5114279;27;20470;-73
2022/10/12 05:54:06;;;;;;;7.47;2.50;;;;;;;;;;5111224;27;21025;-72
2022/10/12 05:56:33;;;;;;;17.27;3.50;;;;;;;;;;5112493;27;20681;-71
2022/10/12 05:59:10;;;;;;;5.27;2.27;;;;;;;;;;5115701;27;20447;-71
2022/10/12 06:01:37;;;;;;;6.80;2.23;;;;;;;;;;5114410;27;20482;-69
2022/10/12 06:04:05;;;;;;;6.60;2.43;;;;;;;;;;5111607;27;20515;-69
2022/10/12 06:06:33;;;;;;;9.83;2.87;;;;;;;;;;5115470;27;20442;-69
2022/10/12 06:09:01;;;;;;;17.57;3.27;;;;;;;;;;5134590;27;20544;-72
2022/10/12 06:11:28;;;;;;;9.87;2.53;;;;;;;;;;5134818;27;20533;-71
2022/10/12 06:13:56;;;;;;;6.93;2.43;;;;;;;;;;5117708;27;20922;-70
2022/10/12 06:16:23;;;;;;;7.07;2.87;;;;;;;;;;5134266;27;20533;-71
2022/10/12 06:18:50;;;;;;;7.63;3.60;;;;;;;;;;5131738;27;20497;-71
2022/10/12 06:21:17;;;;;;;25.27;5.37;;;;;;;;;;5130996;27;20458;-71
2022/10/12 06:23:45;;;;;;;16.50;3.83;;;;;;;;;;5122873;27;20510;-71
2022/10/12 06:26:12;;;;;;;16.13;4.50;;;;;;;;;;5116478;27;20474;-69
2022/10/12 06:28:49;;;;;;;17.43;8.83;;;;;;;;;;5117071;27;20867;-70
2022/10/12 06:31:16;;;;;;;16.87;3.77;;;;;;;;;;5123886;27;20458;-70
2022/10/12 06:33:46;;;;;;;14.53;2.80;;;;;;;;;;5122124;27;20852;-70
2022/10/12 06:36:13;;;;;;;15.57;2.80;;;;;;;;;;5113065;27;20473;-70
2022/10/12 06:38:40;;;;;;;14.40;3.83;;;;;;;;;;5124278;27;20469;-69
2022/10/12 06:41:08;;;;;;;7.03;2.73;;;;;;;;;;5130932;27;20466;-68
2022/10/12 06:43:35;;;;;;;4.53;1.60;;;;;;;;;;5116898;27;20485;-68
2022/10/12 06:46:02;;;;;;;9.83;2.77;;;;;;;;;;5136132;27;20472;-68
2022/10/12 06:48:33;;;;;;;8.80;3.10;;;;;;;;;;5124171;27;20514;-69
2022/10/12 06:51:00;;;;;;;12.67;3.43;;;;;;;;;;5119873;27;20638;-68
2022/10/12 06:53:33;;;;;;;8.47;2.90;;;;;;;;;;5120614;27;20477;-68
2022/10/12 06:56:05;;;;;;;10.37;3.00;;;;;;;;;;5115055;27;20457;-69
2022/10/12 06:58:34;;;;;;;11.33;3.57;;;;;;;;;;5124292;27;20521;-69
2022/10/12 07:01:02;;;;;;;8.13;2.40;;;;;;;;;;5127148;27;20473;-68
2022/10/12 07:03:29;;;;;;;7.50;3.10;;;;;;;;;;5118153;27;20463;-68
2022/10/12 07:06:04;;;;;;;10.73;3.00;;;;;;;;;;5123474;27;20854;-68
2022/10/12 07:08:31;;;;;;;10.23;3.07;;;;;;;;;;5119070;27;20469;-68
2022/10/12 07:11:01;;;;;;;7.20;2.37;;;;;;;;;;5120285;27;20515;-68
2022/10/12 07:13:28;;;;;;;9.63;3.00;;;;;;;;;;5119694;27;20489;-68
2022/10/12 07:15:56;;;;;;;5.30;2.73;;;;;;;;;;5128792;27;20461;-68
2022/10/12 07:18:23;;;;;;;7.97;2.57;;;;;;;;;;5113234;27;20467;-67
2022/10/12 07:20:51;;;;;;;8.27;2.73;;;;;;;;;;5119019;27;20548;-68
2022/10/12 07:23:18;;;;;;;10.40;5.13;;;;;;;;;;5120192;27;20536;-69
2022/10/12 07:25:49;;;;;;;5.57;2.77;;;;;;;;;;5116834;27;20466;-68
2022/10/12 07:28:20;;;;;;;10.60;2.37;;;;;;;;;;5117552;27;20766;-70
2022/10/12 07:31:03;;;;;;;7.70;2.40;;;;;;;;;;5113763;27;20512;-68
2022/10/12 07:33:34;;;;;;;8.00;2.30;;;;;;;;;;5116036;27;20527;-69
2022/10/12 07:36:02;;;;;;;14.70;3.23;;;;;;;;;;5120525;27;20511;-68
2022/10/12 07:38:29;;;;;;;8.87;2.40;;;;;;;;;;5112979;27;20471;-68
2022/10/12 07:41:00;;;;;;;12.10;2.77;;;;;;;;;;5117381;27;20495;-68
2022/10/12 07:43:27;;;;;;;9.40;2.80;;;;;;;;;;5119002;27;20961;-69
2022/10/12 07:45:56;;;;;;;9.20;3.37;;;;;;;;;;5124009;27;20905;-69
2022/10/12 07:48:23;;;;;;;7.30;3.07;;;;;;;;;;5122277;27;20813;-69
2022/10/12 07:50:51;;;;;;;11.37;4.53;;;;;;;;;;5133744;27;20892;-69
2022/10/12 07:53:18;;;;;;;6.93;2.20;;;;;;;;;;5123057;27;20542;-68
2022/10/12 07:55:45;;;;;;;16.90;3.60;;;;;;;;;;5122385;27;20465;-69
2022/10/12 07:58:22;;;;;;;8.23;2.40;;;;;;;;;;5119496;27;20870;-68
2022/10/12 08:00:56;;;;;;;5.00;2.47;;;;;;;;;;5112948;27;20464;-68
2022/10/12 08:03:38;;;;;;;13.87;5.60;;;;;;;;;;5115094;27;20466;-68
2022/10/12 08:06:19;;;;;;;10.67;5.30;;;;;;;;;;5117603;27;20458;-68
2022/10/12 08:08:50;;;;;;;8.37;2.53;;;;;;;;;;5115772;27;20519;-69
2022/10/12 08:11:25;;;;;;;18.20;2.87;;;;;;;;;;5125256;27;20466;-69
2022/10/12 08:14:03;;;;;;;11.03;2.80;;;;;;;;;;5117856;27;20518;-70
2022/10/12 08:16:42;;;;;;;6.67;2.10;;;;;;;;;;5118476;27;20453;-68
2022/10/12 08:19:10;;;;;;;6.60;2.60;;;;;;;;;;5119671;27;20469;-67
2022/10/12 08:21:53;;;;;;;5.80;2.40;;;;;;;;;;5121671;27;20507;-70
2022/10/12 08:24:47;;;;;;;11.23;2.53;;;;;;;;;;5135235;27;20720;-68
2022/10/12 08:27:14;;;;;;;6.00;2.60;;;;;;;;;;5121535;27;20947;-69
2022/10/12 08:30:04;;;;;;;8.80;2.07;;;;;;;;;;5127861;27;20522;-70
2022/10/12 08:32:31;;;;;;;6.93;2.10;;;;;;;;;;5120571;27;20500;-68
2022/10/12 08:35:11;;;;;;;7.53;2.70;;;;;;;;;;5112515;27;20466;-69
2022/10/12 08:37:43;;;;;;;7.07;2.87;;;;;;;;;;5113987;27;20470;-68
2022/10/12 08:40:20;;;;;;;11.63;3.00;;;;;;;;;;5118218;27;20875;-70
2022/10/12 08:42:51;;;;;;;9.40;2.70;;;;;;;;;;5118166;27;20462;-70
2022/10/12 08:48:14;;;;;;;6.40;2.00;;;;;;;;;;5126644;27;20520;-70
2022/10/12 08:50:46;;;;;;;5.70;2.40;;;;;;;;;;5123786;27;20458;-70
2022/10/12 08:53:18;;;;;;;5.70;2.43;;;;;;;;;;5127385;27;20940;-69
2022/10/12 08:55:46;;;;;;;9.00;1.90;;;;;;;;;;5117601;27;20465;-69
2022/10/12 08:58:25;;;;;;;5.97;2.10;;;;;;;;;;5119040;27;20492;-68
2022/10/12 09:00:54;;;;;;;6.30;1.90;;;;;;;;;;5118634;27;20611;-70
2022/10/12 09:03:34;;;;;;;9.47;2.47;;;;;;;;;;5126328;27;20631;-70
2022/10/12 09:06:05;;;;;;;5.93;1.47;;;;;;;;;;5116575;27;20452;-69
2022/10/12 09:08:43;;;;;;;4.70;2.30;;;;;;;;;;5115148;27;20492;-68
2022/10/12 09:11:15;;;;;;;7.93;1.50;;;;;;;;;;5121704;27;20466;-70
2022/10/12 09:13:45;;;;;;;7.73;1.97;;;;;;;;;;5125850;27;20910;-71
2022/10/12 09:16:17;;;;;;;12.90;2.57;;;;;;;;;;5124129;27;20614;-68
2022/10/12 09:18:47;;;;;;;7.17;2.93;;;;;;;;;;5127314;27;20446;-70
2022/10/12 09:21:18;;;;;;;7.60;1.90;;;;;;;;;;5123442;27;20473;-70
2022/10/12 09:23:48;;;;;;;7.60;2.43;;;;;;;;;;5120006;27;20467;-69
2022/10/12 09:26:17;;;;;;;10.03;1.87;;;;;;;;;;5126916;27;20553;-68
2022/10/12 09:28:46;;;;;;;8.57;1.50;;;;;;;;;;5118577;27;20447;-68
2022/10/12 09:31:21;;;;;;;8.33;2.70;;;;;;;;;;5127024;27;20457;-68
2022/10/12 09:33:51;;;;;;;9.37;2.83;;;;;;;;;;5121415;27;20485;-70
2022/10/12 09:36:20;;;;;;;8.03;1.50;;;;;;;;;;5116670;27;20619;-68
2022/10/12 09:38:49;;;;;;;4.20;1.83;;;;;;;;;;5133720;27;20485;-70
2022/10/12 09:41:22;;;;;;;5.03;2.23;;;;;;;;;;5118386;27;20480;-69
2022/10/12 09:43:51;;;;;;;7.70;1.40;;;;;;;;;;5132971;27;20568;-69
2022/10/12 09:46:21;;;;;;;6.27;1.93;;;;;;;;;;5135260;27;20514;-70
2022/10/12 09:48:58;;;;;;;3.70;1.70;;;;;;;;;;5128348;27;20451;-70
2022/10/12 09:51:25;;;;;;;12.47;1.97;;;;;;;;;;5124378;27;21110;-70
2022/10/12 09:53:53;;;;;;;4.93;2.00;;;;;;;;;;5121443;27;20539;-70
2022/10/12 09:56:30;;;;;;;6.47;2.67;;;;;;;;;;5126520;27;20468;-69
2022/10/12 09:58:58;;;;;;;7.67;3.03;;;;;;;;;;5124856;27;20502;-70
2022/10/12 10:04:25;;;;;;;8.83;4.53;;;;;;;;;;5118604;27;20469;-70
2022/10/12 10:06:52;;;;;;;11.93;6.13;;;;;;;;;;5123320;27;20541;-70
2022/10/12 10:09:44;;;;;;;6.97;2.10;;;;;;;;;;5121653;27;20509;-70
2022/10/12 10:12:22;;;;;;;7.57;2.63;;;;;;;;;;5120746;27;20501;-70
2022/10/12 10:14:55;;;;;;;9.23;2.10;;;;;;;;;;5126033;27;20896;-70
2022/10/12 10:17:28;;;;;;;7.07;2.83;;;;;;;;;;5114525;27;20844;-68
2022/10/12 10:19:56;;;;;;;9.10;2.90;;;;;;;;;;5121763;27;20472;-69
2022/10/12 10:22:24;;;;;;;6.67;1.93;;;;;;;;;;5123841;27;20445;-70
2022/10/12 10:24:52;;;;;;;5.23;1.90;;;;;;;;;;5118288;27;20547;-69
2022/10/12 10:27:33;;;;;;;5.27;1.73;;;;;;;;;;5114411;27;20458;-69
2022/10/12 10:30:10;;;;;;;12.63;4.57;;;;;;;;;;5125959;27;20548;-69
2022/10/12 10:32:37;;;;;;;11.27;2.77;;;;;;;;;;5129475;27;20477;-69
2022/10/12 10:35:05;;;;;;;5.97;1.90;;;;;;;;;;5134314;27;20461;-70
2022/10/12 10:37:39;;;;;;;8.80;2.93;;;;;;;;;;5132012;27;20465;-69
2022/10/12 10:40:17;;;;;;;17.77;6.53;;;;;;;;;;5115266;27;21212;-67
2022/10/12 10:42:48;;;;;;;4.40;1.90;;;;;;;;;;5115162;27;20535;-69
2022/10/12 10:45:22;;;;;;;7.60;2.23;;;;;;;;;;5118372;27;20585;-69
2022/10/12 10:47:49;;;;;;;8.17;1.97;;;;;;;;;;5125800;27;20492;-69
2022/10/12 10:50:29;;;;;;;10.23;2.83;;;;;;;;;;5128397;27;20473;-70
2022/10/12 10:53:00;;;;;;;10.50;2.63;;;;;;;;;;5128664;27;20856;-71
2022/10/12 10:55:31;;;;;;;6.77;2.70;;;;;;;;;;5146453;27;20457;-70
2022/10/12 10:58:02;;;;;;;11.43;6.00;;;;;;;;;;5136972;27;20454;-70
2022/10/12 11:00:34;;;;;;;5.13;2.00;;;;;;;;;;5117097;27;20482;-69
2022/10/12 11:03:06;;;;;;;9.13;3.00;;;;;;;;;;5123986;27;20442;-69
2022/10/12 11:05:37;;;;;;;10.90;2.10;;;;;;;;;;5131368;27;20768;-70
2022/10/12 11:08:06;;;;;;;12.67;2.63;;;;;;;;;;5135235;27;20506;-72
2022/10/12 11:10:43;;;;;;;5.63;1.80;;;;;;;;;;5125298;27;20466;-72
2022/10/12 11:13:21;;;;;;;11.20;2.50;;;;;;;;;;5129040;27;20481;-68
2022/10/12 11:15:50;;;;;;;6.73;2.17;;;;;;;;;;5113587;27;20527;-70
2022/10/12 11:18:30;;;;;;;4.70;1.90;;;;;;;;;;5123312;27;20859;-70
2022/10/12 11:21:36;;;;;;;8.53;1.77;;;;;;;;;;5132265;27;20469;-72
2022/10/12 11:24:20;;;;;;;9.17;3.00;;;;;;;;;;5119492;27;20461;-71
2022/10/12 11:26:49;;;;;;;10.90;2.57;;;;;;;;;;5133524;27;20485;-73
2022/10/12 11:29:35;;;;;;;4.20;1.87;;;;;;;;;;5130858;27;20462;-71
2022/10/12 11:35:29;;;;;;;5.70;1.67;;;;;;;;;;5112802;27;20461;-72
2022/10/12 11:38:29;;;;;;;5.27;1.30;;;;;;;;;;5116145;27;20865;-72
2022/10/12 11:44:34;;;;;;;18.60;9.60;;;;;;;;;;5051050;28;20588;-71
2022/10/12 11:47:12;;;;;;;18.40;5.63;;;;;;;;;;5127109;27;20474;-72
2022/10/12 11:52:38;;;;;;;11.83;4.00;;;;;;;;;;5131225;27;20581;-71
2022/10/12 11:55:25;;;;;;;5.20;2.00;;;;;;;;;;5111268;27;20462;-70
2022/10/12 11:57:54;;;;;;;6.70;2.40;;;;;;;;;;5107597;27;20462;-72
2022/10/12 12:00:25;;;;;;;12.83;4.20;;;;;;;;;;5106335;27;20503;-71
2022/10/12 12:03:32;;;;;;;;;;;;;;;;;;;;;
2022/10/12 12:06:26;;;;;;;5.87;2.07;;;;;;;;;;5071415;28;20458;-70
2022/10/12 12:09:20;;;;;;;7.53;2.10;;;;;;;;;;5100178;27;20545;-75
2022/10/12 12:11:51;;;;;;;5.83;2.77;;;;;;;;;;5028336;28;20546;-71
2022/10/12 12:14:36;;;;;;;14.77;3.97;;;;;;;;;;5113862;27;20521;-69
2022/10/12 12:17:14;;;;;;;11.13;3.90;;;;;;;;;;5094389;27;20462;-72
2022/10/12 12:19:42;;;;;;;11.53;3.20;;;;;;;;;;5103157;28;20455;-72
2022/10/12 12:22:25;;;;;;;4.77;2.10;;;;;;;;;;5101741;28;20459;-73
2022/10/12 12:25:05;;;;;;;7.83;3.33;;;;;;;;;;5103687;28;20501;-70
2022/10/12 12:27:37;;;;;;;6.60;1.77;;;;;;;;;;5110210;27;20474;-73
2022/10/12 12:30:09;;;;;;;13.77;3.90;;;;;;;;;;5095641;28;20462;-70
2022/10/12 12:32:45;;;;;;;7.60;2.50;;;;;;;;;;5099148;28;20524;-72
2022/10/12 12:35:20;;;;;;;9.20;3.20;;;;;;;;;;5110350;27;20972;-72
2022/10/12 12:37:48;;;;;;;8.90;1.90;;;;;;;;;;5101864;27;21090;-72
2022/10/12 12:40:21;;;;;;;12.30;3.30;;;;;;;;;;5108784;27;20466;-72
2022/10/12 12:42:48;;;;;;;6.37;2.40;;;;;;;;;;5100903;27;20457;-73
2022/10/12 12:45:39;;;;;;;7.90;2.07;;;;;;;;;;5102655;28;20475;-72
2022/10/12 12:48:10;;;;;;;14.33;5.17;;;;;;;;;;5104791;27;20452;-72
2022/10/12 12:50:40;;;;;;;10.50;3.10;;;;;;;;;;5100201;28;20463;-72
2022/10/12 12:53:13;;;;;;;14.37;4.23;;;;;;;;;;5107297;27;20493;-71
2022/10/12 12:55:48;;;;;;;6.50;1.57;;;;;;;;;;5113327;27;20470;-72
2022/10/12 12:58:38;;;;;;;10.63;3.17;;;;;;;;;;5096012;28;20457;-71
2022/10/12 13:01:17;;;;;;;10.07;1.53;;;;;;;;;;5096220;27;20474;-71
2022/10/12 13:04:01;;;;;;;6.67;2.10;;;;;;;;;;5112998;27;20454;-70
2022/10/12 13:06:50;;;;;;;8.87;2.40;;;;;;;;;;5094536;28;20577;-70
2022/10/12 13:09:26;;;;;;;8.83;3.53;;;;;;;;;;5094332;28;20547;-70
2022/10/12 13:11:59;;;;;;;6.47;2.50;;;;;;;;;;5097936;28;20447;-72
2022/10/12 13:14:38;;;;;;;8.37;2.00;;;;;;;;;;5095490;28;20548;-72
2022/10/12 13:17:25;;;;;;;5.80;2.10;;;;;;;;;;5099266;28;20447;-69
2022/10/12 13:19:56;;;;;;;6.23;1.97;;;;;;;;;;5107240;28;20602;-71
2022/10/12 13:22:27;;;;;;;9.33;2.27;;;;;;;;;;5104378;27;20871;-70
2022/10/12 13:24:59;;;;;;;9.43;2.30;;;;;;;;;;5097137;28;20510;-71
2022/10/12 13:27:52;;;;;;;;;;;;;;;;;;;;;
2022/10/12 13:30:23;;;;;;;5.00;2.40;;;;;;;;;;5099264;27;20466;-69
2022/10/12 13:32:56;;;;;;;10.77;3.40;;;;;;;;;;5094562;28;20560;-69
2022/10/12 13:35:29;;;;;;;6.80;2.40;;;;;;;;;;5096026;28;20465;-69
2022/10/12 13:38:00;;;;;;;6.97;2.97;;;;;;;;;;5095800;28;20458;-69
2022/10/12 13:40:28;;;;;;;6.10;2.50;;;;;;;;;;5107023;28;20877;-69
2022/10/12 13:43:15;;;;;;;10.53;3.23;;;;;;;;;;5098496;27;20485;-69
2022/10/12 13:45:54;;;;;;;6.50;2.53;;;;;;;;;;5102376;27;20479;-69
2022/10/12 13:48:23;;;;;;;7.80;3.60;;;;;;;;;;5113570;27;20539;-69
2022/10/12 13:50:55;;;;;;;5.60;2.10;;;;;;;;;;5111517;27;20869;-69
2022/10/12 13:53:23;;;;;;;8.53;1.97;;;;;;;;;;5101573;27;20907;-69
2022/10/12 13:55:53;;;;;;;9.00;2.80;;;;;;;;;;5100782;28;20463;-70
2022/10/12 13:58:22;;;;;;;7.20;2.10;;;;;;;;;;5101823;27;21106;-69
2022/10/12 14:00:50;;;;;;;8.10;3.33;;;;;;;;;;5109900;28;20450;-70
2022/10/12 14:03:25;;;;;;;7.13;2.00;;;;;;;;;;5103283;28;20466;-69
2022/10/12 14:06:04;;;;;;;4.93;1.63;;;;;;;;;;5105964;27;20447;-71
2022/10/12 14:08:34;;;;;;;7.00;1.93;;;;;;;;;;5096205;28;20462;-67
2022/10/12 14:11:25;;;;;;;6.77;2.47;;;;;;;;;;5095971;28;20444;-69
2022/10/12 14:14:10;;;;;;;9.50;2.23;;;;;;;;;;5091756;28;20499;-69
2022/10/12 14:16:43;;;;;;;6.77;1.93;;;;;;;;;;5102723;27;20457;-68
2022/10/12 14:19:37;;;;;;;6.73;1.90;;;;;;;;;;5101655;28;20802;-68
2022/10/12 14:22:21;;;;;;;7.43;3.00;;;;;;;;;;5102021;28;20457;-69
2022/10/12 14:24:50;;;;;;;7.20;1.63;;;;;;;;;;5101588;27;20497;-68
2022/10/12 14:27:24;;;;;;;3.97;1.90;;;;;;;;;;5108536;28;20547;-69
2022/10/12 14:30:04;;;;;;;3.27;1.27;;;;;;;;;;5109974;27;20910;-70
2022/10/12 14:32:59;;;;;;;4.10;1.20;;;;;;;;;;5097650;28;20480;-68
2022/10/12 14:35:47;;;;;;;5.50;2.67;;;;;;;;;;5095446;27;20455;-70
2022/10/12 14:38:46;;;;;;;5.67;2.17;;;;;;;;;;5110587;27;20557;-68
2022/10/12 14:41:34;;;;;;;6.90;1.90;;;;;;;;;;5082764;28;20455;-69
2022/10/12 14:44:38;;;;;;;;;;;;;;;;;;;;;
2022/10/12 14:47:18;;;;;;;9.93;2.43;;;;;;;;;;5092579;27;20464;-70
2022/10/12 14:49:50;;;;;;;9.57;1.60;;;;;;;;;;5095122;28;20446;-69
2022/10/12 14:55:31;;;;;;;9.20;2.80;;;;;;;;;;5086168;28;20447;-68
2022/10/12 14:58:02;;;;;;;6.60;3.03;;;;;;;;;;5111564;28;20451;-69
2022/10/12 15:00:35;;;;;;;12.73;2.27;;;;;;;;;;5111832;28;20559;-69
2022/10/12 15:03:03;;;;;;;8.00;2.57;;;;;;;;;;5103639;27;20495;-69
2022/10/12 15:05:31;;;;;;;6.43;1.97;;;;;;;;;;5096440;28;20472;-68
2022/10/12 15:08:07;;;;;;;12.43;3.87;;;;;;;;;;5113630;27;20450;-69
2022/10/12 15:10:47;;;;;;;9.97;2.33;;;;;;;;;;5105382;27;20534;-69
2022/10/12 15:13:24;;;;;;;4.60;1.70;;;;;;;;;;5113151;27;20477;-70
2022/10/12 15:15:54;;;;;;;7.97;3.00;;;;;;;;;;5101584;28;20478;-71
2022/10/12 15:18:22;;;;;;;14.57;3.40;;;;;;;;;;5108839;27;20443;-70
2022/10/12 15:20:49;;;;;;;11.10;3.63;;;;;;;;;;5112818;27;20459;-69
2022/10/12 15:23:16;;;;;;;7.53;1.70;;;;;;;;;;5113187;27;20465;-68
2022/10/12 15:25:48;;;;;;;15.20;4.30;;;;;;;;;;5104598;27;20515;-68
2022/10/12 15:28:15;;;;;;;6.90;2.70;;;;;;;;;;5093371;27;21058;-69